Airfield :
LOGIN :

Register | Disclaimer

   EN    FR    IT 

 










Legend :    VFR   Marginal VFR   IFR   Intensive IFR   Very Intensive IFR
Visi :
Ceiling :
>= 8 km
>= 3000ft
5 to 8 km
1000 to 3000 ft
1500m to 5 km
500 to 1000 ft
800 to 1500m
200 to 500 ft
< 800m
< 200 ft
Symbols :   Thunderstorms  Fog  Heavy snow  Heavy precipitations  Wind > 20 kt
SIGMETs :     Misc.  Thunderstorms  Icing  Turbulence  Mountain Waves  Volcanic Ashes







- Airport Elevation : 161 ft
- IATA code : TKU


EFTU - Turku

CURRENT METAR :
  • 130120Z AUTO 01003KT 320V060 CAVOK M03/M04 Q1033

EXPIRED METARs :
  • 130050Z AUTO 36003KT 320V050 CAVOK M03/M04 Q1032
  • 130020Z AUTO 01003KT 330V040 CAVOK M02/M04 Q1032
  • 122350Z AUTO 01003KT CAVOK M02/M04 Q1032
  • 122320Z AUTO VRB02KT 9999 FEW015/// M02/M03 Q1032
  • 122250Z AUTO 04003KT 010V080 9999 BKN016/// M01/M03 Q1032

TAF TAF EFTU
Valid from the 13 at 00:00 until the 14 at 00:00 UTC


122327Z 1300/1324 04005KT 9999 FEW015
PROB30
TEMPO 1303/1305 BKN013
TEMPO 1315/1324 BKN012
No reported NOTAMs for that airfield.



MET'MAP, your aeronautical weather chart ! - Copyright ORBIFLY December 2007 - Disclaimer

ORBIFLY MET'MAP TEAM :

Programming & Development : Alexandra Zaïnal
Concept & Development : Baudouin d'Aumeries
Co-Development & Prog : Marc-Olivier Méhu
Technical & hardware support : Manuel Goepfert

Contact : metmap@orbifly.com




SOURCES & CREDITS :

   NOAA